createdAt,value
2023-03-20T00:00:00.000Z,76.83
2023-03-20T00:15:00.000Z,74.87
2023-03-20T00:30:00.000Z,75.07
2023-03-20T00:45:00.000Z,75.14
2023-03-20T01:00:00.000Z,74.96
2023-03-20T01:15:00.000Z,74.83
2023-03-20T01:30:00.000Z,75.44
2023-03-20T01:45:00.000Z,77.28
2023-03-20T02:00:00.000Z,79.89
2023-03-20T02:15:00.000Z,81.37
2023-03-20T02:30:00.000Z,82.06
2023-03-20T02:45:00.000Z,82.92
2023-03-20T03:00:00.000Z,83.46
2023-03-20T03:15:00.000Z,83.96
2023-03-20T03:30:00.000Z,85.27
2023-03-20T03:45:00.000Z,85.62
2023-03-20T04:00:00.000Z,85.18
2023-03-20T04:15:00.000Z,84.78
2023-03-20T04:30:00.000Z,84.45
2023-03-20T04:45:00.000Z,84.18
2023-03-20T05:00:00.000Z,84.12
2023-03-20T05:15:00.000Z,84.17
2023-03-20T05:30:00.000Z,84.27
2023-03-20T05:45:00.000Z,84.17
2023-03-20T06:00:00.000Z,84.15
2023-03-20T06:15:00.000Z,84.08
2023-03-20T06:30:00.000Z,84.13
2023-03-20T06:45:00.000Z,83.98
2023-03-20T07:00:00.000Z,83.93
2023-03-20T07:15:00.000Z,83.96
2023-03-20T07:30:00.000Z,83.77
2023-03-20T07:45:00.000Z,83.48
2023-03-20T08:00:00.000Z,83.33
2023-03-20T08:15:00.000Z,83.06
2023-03-20T08:30:00.000Z,82.77
2023-03-20T08:45:00.000Z,82.36
2023-03-20T09:00:00.000Z,81.98
2023-03-20T09:15:00.000Z,81.7
2023-03-20T09:30:00.000Z,81.71
2023-03-20T09:45:00.000Z,81.92
2023-03-20T10:00:00.000Z,79.7
2023-03-20T10:15:00.000Z,76.65
2023-03-20T10:30:00.000Z,74.73
2023-03-20T10:45:00.000Z,72.97
2023-03-20T11:00:00.000Z,67.52
2023-03-20T11:15:00.000Z,65.06
2023-03-20T11:30:00.000Z,65.5
2023-03-20T11:45:00.000Z,66.21
2023-03-20T12:00:00.000Z,65.64
2023-03-20T12:15:00.000Z,64.55
2023-03-20T12:30:00.000Z,61.05
2023-03-20T12:45:00.000Z,60.84
2023-03-20T13:00:00.000Z,60.43
2023-03-20T13:15:00.000Z,60.95
2023-03-20T13:30:00.000Z,59.77
2023-03-20T13:45:00.000Z,58.09
2023-03-20T14:00:00.000Z,59.18
2023-03-20T14:15:00.000Z,59.48
2023-03-20T14:30:00.000Z,60.31
2023-03-20T14:45:00.000Z,59.4
2023-03-20T15:00:00.000Z,59.53
2023-03-20T15:15:00.000Z,59.99
2023-03-20T15:30:00.000Z,62.87
2023-03-20T15:45:00.000Z,62.76
2023-03-20T16:00:00.000Z,62.62
2023-03-20T16:15:00.000Z,61.47
2023-03-20T16:30:00.000Z,62.7
2023-03-20T16:45:00.000Z,65.8
2023-03-20T17:00:00.000Z,67.28
2023-03-20T17:15:00.000Z,67.6
2023-03-20T17:30:00.000Z,69.4
2023-03-20T17:45:00.000Z,70.83
2023-03-20T18:00:00.000Z,72.01
2023-03-20T18:15:00.000Z,73.26
2023-03-20T18:30:00.000Z,74.16
2023-03-20T18:45:00.000Z,75.66
2023-03-20T19:00:00.000Z,76.78
2023-03-20T19:15:00.000Z,78.08
2023-03-20T19:30:00.000Z,78.4
2023-03-20T19:45:00.000Z,78.04
2023-03-20T20:00:00.000Z,77.26
2023-03-20T20:15:00.000Z,76.06
2023-03-20T20:30:00.000Z,77.06
2023-03-20T20:45:00.000Z,78.3
2023-03-20T21:00:00.000Z,78.85
2023-03-20T21:15:00.000Z,78.68
2023-03-20T21:45:00.000Z,76.9
2023-03-20T22:30:00.000Z,77.28
2023-03-20T22:45:00.000Z,77.61
2023-03-20T23:00:00.000Z,77.54
2023-03-20T23:15:00.000Z,77.39
2023-03-20T23:30:00.000Z,77.03
2023-03-20T23:45:00.000Z,77.32
